Grand Rapids, MN

2:39 AM CDT on September 16, 2014 (GMT -0500)
Southwest | Change Station
CLOSE
Current Station
Personal Weather Station
Location: Grand Rapids, MN
Elevation: 1322 ft
Nearby Weather Stations

Elev 1322 ft 47.23 °N, 93.54 °W | Updated 4 minutes ago

Clear
Clear
49.8 °F
Feels Like 48 °F
N
5.4
Wind Variable Wind from SW
Gusts 6.0 mph

Today
High -- | Low -- °F
--% Chance of Precip.
Yesterday
High -- | Low -- °F
Precip. -- in
6:53 AM 7:23 PM
Waning Gibbous, 48% visible
Pressure 30.10 in
Visibility 10.0 miles
Clouds Clear
Windchill 48 °F
Dew Point 39 °F
Humidity 67%
Rainfall 0.00 in
Snow Depth Not available.
UV 0 out of 12
Pollen 2.90 out of 12
Air Quality Not available.
Flu Activity Not available.
METAR KGPZ 160735Z AUTO 20006KT 10SM CLR 09/01 A3010 RMK AO1

More Conditions Fewer Conditions

Pressure 30.10 in
Visibility 10.0 miles
Clouds Clear
Windchill 48 °F
Dew Point 39 °F
Humidity 67%
Rainfall 0.00 in
Snow Depth Not available.
UV 0 out of 12
Pollen 2.90 out of 12
Air Quality Not available.
Flu Activity Not available.
METAR KGPZ 160735Z AUTO 20006KT 10SM CLR 09/01 A3010 RMK AO1

More Conditions Fewer Conditions

10-Day Weather Forecast

Almanac

Astronomy

Sep. 16, 2014 Rise Set
Actual Time 6:53 AM CDT 7:23 PM CDT
Civil Twilight 6:22 AM CDT 7:54 PM CDT
Nautical Twilight 5:45 AM CDT 8:30 PM CDT
Astronomical Twilight 5:07 AM CDT 9:08 PM CDT
Moon No Moon Rise 3:05 PM CDT
Length of Visible Light 13h 32m
Length of Day
12h 30m
Tomorrow will be 3m 21s shorter.
Waning Gibbous, 48% of the Moon is Illuminated
Today
Waning Gibbous
Sep 24
New
Oct 1
First Quarter
Oct 8
Full
Oct 15
Last Quarter

Today's Extremes

State Highs State Lows

Community

WunderPhotos

Upload Photos

1,753,713 photos uploaded!

Nearby

Snow Depth

Station Depth Elevation
No new snow has been reported.

Earthquake Activity

City Distance Mag. Time & Date
No recent earthquake activity has been reported nearby.
Minimum magnitude displayed is 2.5.

Coastal Water Temperatures

Place Temperature
No Stations Reporting

Nearby Weather Stations